sensor_id;sensor_type;location;lat;lon;timestamp;temperature;humidity
46085;DHT22;31823;47.032;8.310;2022-09-17T00:00:17;10.00;99.90
46085;DHT22;31823;47.032;8.310;2022-09-17T00:02:42;10.00;99.90
46085;DHT22;31823;47.032;8.310;2022-09-17T00:05:10;10.00;99.90
46085;DHT22;31823;47.032;8.310;2022-09-17T00:07:36;9.90;99.90
46085;DHT22;31823;47.032;8.310;2022-09-17T00:10:02;9.80;99.90
46085;DHT22;31823;47.032;8.310;2022-09-17T00:12:29;9.90;99.90
46085;DHT22;31823;47.032;8.310;2022-09-17T00:14:55;9.80;99.90
46085;DHT22;31823;47.032;8.310;2022-09-17T00:17:21;9.70;99.90
46085;DHT22;31823;47.032;8.310;2022-09-17T00:19:46;9.70;99.90
46085;DHT22;31823;47.032;8.310;2022-09-17T00:22:14;9.70;99.90
46085;DHT22;31823;47.032;8.310;2022-09-17T00:24:40;9.70;99.90
46085;DHT22;31823;47.032;8.310;2022-09-17T00:27:06;9.80;99.90
46085;DHT22;31823;47.032;8.310;2022-09-17T00:29:31;9.70;99.90
46085;DHT22;31823;47.032;8.310;2022-09-17T00:31:57;9.70;99.90
46085;DHT22;31823;47.032;8.310;2022-09-17T00:34:22;9.70;99.90
46085;DHT22;31823;47.032;8.310;2022-09-17T00:36:48;9.50;99.90
46085;DHT22;31823;47.032;8.310;2022-09-17T00:39:14;9.50;99.90
46085;DHT22;31823;47.032;8.310;2022-09-17T00:41:41;9.60;99.90
46085;DHT22;31823;47.032;8.310;2022-09-17T00:44:45;9.70;99.90
46085;DHT22;31823;47.032;8.310;2022-09-17T00:48:20;9.50;99.90
46085;DHT22;31823;47.032;8.310;2022-09-17T00:50:27;9.50;99.90
46085;DHT22;31823;47.032;8.310;2022-09-17T00:53:00;9.60;99.90
46085;DHT22;31823;47.032;8.310;2022-09-17T00:55:31;9.70;99.90
46085;DHT22;31823;47.032;8.310;2022-09-17T00:58:00;9.80;99.90
46085;DHT22;31823;47.032;8.310;2022-09-17T01:00:28;9.70;99.90
46085;DHT22;31823;47.032;8.310;2022-09-17T01:02:55;9.70;99.90
46085;DHT22;31823;47.032;8.310;2022-09-17T01:05:31;9.60;99.90
46085;DHT22;31823;47.032;8.310;2022-09-17T01:22:02;9.70;99.90
46085;DHT22;31823;47.032;8.310;2022-09-17T01:35:19;9.80;99.90
46085;DHT22;31823;47.032;8.310;2022-09-17T01:43:38;9.90;99.90
46085;DHT22;31823;47.032;8.310;2022-09-17T01:46:09;10.00;99.90
46085;DHT22;31823;47.032;8.310;2022-09-17T01:48:40;10.00;99.90
46085;DHT22;31823;47.032;8.310;2022-09-17T01:51:21;9.90;99.90
46085;DHT22;31823;47.032;8.310;2022-09-17T01:54:02;10.00;99.90
46085;DHT22;31823;47.032;8.310;2022-09-17T01:57:03;9.90;99.90
46085;DHT22;31823;47.032;8.310;2022-09-17T01:59:37;10.10;99.90
46085;DHT22;31823;47.032;8.310;2022-09-17T02:08:08;9.90;99.90
46085;DHT22;31823;47.032;8.310;2022-09-17T02:10:44;9.80;99.90
46085;DHT22;31823;47.032;8.310;2022-09-17T02:13:13;9.70;99.90
46085;DHT22;31823;47.032;8.310;2022-09-17T02:15:56;9.70;99.90
46085;DHT22;31823;47.032;8.310;2022-09-17T02:21:35;9.60;99.90
46085;DHT22;31823;47.032;8.310;2022-09-17T02:24:08;9.60;99.90
46085;DHT22;31823;47.032;8.310;2022-09-17T02:26:39;9.50;99.90
46085;DHT22;31823;47.032;8.310;2022-09-17T02:29:13;9.50;99.90
46085;DHT22;31823;47.032;8.310;2022-09-17T02:31:41;9.40;99.90
46085;DHT22;31823;47.032;8.310;2022-09-17T02:34:08;9.40;99.90
46085;DHT22;31823;47.032;8.310;2022-09-17T02:36:34;9.40;99.90
46085;DHT22;31823;47.032;8.310;2022-09-17T02:39:01;9.40;99.90
46085;DHT22;31823;47.032;8.310;2022-09-17T02:48:11;9.40;99.90
46085;DHT22;31823;47.032;8.310;2022-09-17T03:01:33;9.40;99.90
46085;DHT22;31823;47.032;8.310;2022-09-17T03:04:02;9.50;99.90
46085;DHT22;31823;47.032;8.310;2022-09-17T03:06:29;9.60;99.90
46085;DHT22;31823;47.032;8.310;2022-09-17T03:08:55;9.80;99.90
46085;DHT22;31823;47.032;8.310;2022-09-17T03:11:21;9.80;99.90
46085;DHT22;31823;47.032;8.310;2022-09-17T03:13:47;9.90;99.90
46085;DHT22;31823;47.032;8.310;2022-09-17T03:16:13;9.90;99.90
46085;DHT22;31823;47.032;8.310;2022-09-17T03:18:38;10.00;99.90
46085;DHT22;31823;47.032;8.310;2022-09-17T03:21:04;10.20;99.90
46085;DHT22;31823;47.032;8.310;2022-09-17T03:23:30;10.20;99.90
46085;DHT22;31823;47.032;8.310;2022-09-17T03:25:55;10.20;99.90
46085;DHT22;31823;47.032;8.310;2022-09-17T03:28:21;10.20;99.90
46085;DHT22;31823;47.032;8.310;2022-09-17T03:30:47;10.10;99.90
46085;DHT22;31823;47.032;8.310;2022-09-17T03:33:13;10.10;99.90
46085;DHT22;31823;47.032;8.310;2022-09-17T03:35:45;10.00;99.90
46085;DHT22;31823;47.032;8.310;2022-09-17T03:38:11;10.00;99.90
46085;DHT22;31823;47.032;8.310;2022-09-17T03:40:37;10.10;99.90
46085;DHT22;31823;47.032;8.310;2022-09-17T03:43:05;10.10;99.90
46085;DHT22;31823;47.032;8.310;2022-09-17T03:45:30;10.10;99.90
46085;DHT22;31823;47.032;8.310;2022-09-17T03:47:56;10.20;99.90
46085;DHT22;31823;47.032;8.310;2022-09-17T03:50:22;10.00;99.90
46085;DHT22;31823;47.032;8.310;2022-09-17T03:52:47;10.00;99.90
46085;DHT22;31823;47.032;8.310;2022-09-17T03:55:13;9.90;99.90
46085;DHT22;31823;47.032;8.310;2022-09-17T03:57:40;9.90;99.90
46085;DHT22;31823;47.032;8.310;2022-09-17T04:00:06;10.10;99.90
46085;DHT22;31823;47.032;8.310;2022-09-17T04:02:32;9.80;99.90
46085;DHT22;31823;47.032;8.310;2022-09-17T04:04:58;9.70;99.90
46085;DHT22;31823;47.032;8.310;2022-09-17T04:07:24;9.50;99.90
46085;DHT22;31823;47.032;8.310;2022-09-17T04:09:49;9.40;99.90
46085;DHT22;31823;47.032;8.310;2022-09-17T04:12:15;9.30;99.90
46085;DHT22;31823;47.032;8.310;2022-09-17T04:14:40;9.40;99.90
46085;DHT22;31823;47.032;8.310;2022-09-17T04:17:06;9.30;99.90
46085;DHT22;31823;47.032;8.310;2022-09-17T04:19:32;9.40;99.90
46085;DHT22;31823;47.032;8.310;2022-09-17T04:21:57;9.40;99.90
46085;DHT22;31823;47.032;8.310;2022-09-17T04:24:23;9.30;99.90
46085;DHT22;31823;47.032;8.310;2022-09-17T04:26:49;9.10;99.90
46085;DHT22;31823;47.032;8.310;2022-09-17T04:29:14;9.10;99.90
46085;DHT22;31823;47.032;8.310;2022-09-17T04:31:40;9.00;99.90
46085;DHT22;31823;47.032;8.310;2022-09-17T04:34:06;9.10;99.90
46085;DHT22;31823;47.032;8.310;2022-09-17T04:36:31;9.00;99.90
46085;DHT22;31823;47.032;8.310;2022-09-17T04:38:57;9.00;99.90
46085;DHT22;31823;47.032;8.310;2022-09-17T04:41:23;9.10;99.90
46085;DHT22;31823;47.032;8.310;2022-09-17T04:43:48;8.90;99.90
46085;DHT22;31823;47.032;8.310;2022-09-17T04:46:14;9.00;99.90
46085;DHT22;31823;47.032;8.310;2022-09-17T04:48:41;9.10;99.90
46085;DHT22;31823;47.032;8.310;2022-09-17T04:51:07;9.00;99.90
46085;DHT22;31823;47.032;8.310;2022-09-17T04:53:32;8.90;99.90
46085;DHT22;31823;47.032;8.310;2022-09-17T04:55:58;8.90;99.90
46085;DHT22;31823;47.032;8.310;2022-09-17T04:58:23;8.80;99.90
46085;DHT22;31823;47.032;8.310;2022-09-17T05:00:49;8.80;99.90
46085;DHT22;31823;47.032;8.310;2022-09-17T05:03:15;8.90;99.90
46085;DHT22;31823;47.032;8.310;2022-09-17T05:05:40;8.90;99.90
46085;DHT22;31823;47.032;8.310;2022-09-17T05:08:06;8.90;99.90
46085;DHT22;31823;47.032;8.310;2022-09-17T05:10:33;9.10;99.90
46085;DHT22;31823;47.032;8.310;2022-09-17T05:12:59;9.20;99.90
46085;DHT22;31823;47.032;8.310;2022-09-17T05:15:25;9.40;99.90
46085;DHT22;31823;47.032;8.310;2022-09-17T05:17:51;9.30;99.90
46085;DHT22;31823;47.032;8.310;2022-09-17T05:20:17;9.30;99.90
46085;DHT22;31823;47.032;8.310;2022-09-17T05:22:47;9.40;99.90
46085;DHT22;31823;47.032;8.310;2022-09-17T05:25:14;9.40;99.90
46085;DHT22;31823;47.032;8.310;2022-09-17T05:27:41;9.40;99.90
46085;DHT22;31823;47.032;8.310;2022-09-17T05:30:08;9.40;99.90
46085;DHT22;31823;47.032;8.310;2022-09-17T05:32:34;9.30;99.90
46085;DHT22;31823;47.032;8.310;2022-09-17T05:35:01;9.50;99.90
46085;DHT22;31823;47.032;8.310;2022-09-17T05:37:27;9.50;99.90
46085;DHT22;31823;47.032;8.310;2022-09-17T05:39:52;9.50;99.90
46085;DHT22;31823;47.032;8.310;2022-09-17T05:42:18;9.30;99.90
46085;DHT22;31823;47.032;8.310;2022-09-17T05:44:43;9.40;99.90
46085;DHT22;31823;47.032;8.310;2022-09-17T05:47:09;9.20;99.90
46085;DHT22;31823;47.032;8.310;2022-09-17T05:49:34;9.00;99.90
46085;DHT22;31823;47.032;8.310;2022-09-17T05:52:00;9.00;99.90
46085;DHT22;31823;47.032;8.310;2022-09-17T05:54:28;9.10;99.90
46085;DHT22;31823;47.032;8.310;2022-09-17T05:56:53;9.10;99.90
46085;DHT22;31823;47.032;8.310;2022-09-17T05:59:19;9.10;99.90
46085;DHT22;31823;47.032;8.310;2022-09-17T06:01:45;9.30;99.90
46085;DHT22;31823;47.032;8.310;2022-09-17T06:04:11;9.40;99.90
46085;DHT22;31823;47.032;8.310;2022-09-17T06:06:37;9.30;99.90
46085;DHT22;31823;47.032;8.310;2022-09-17T06:09:07;8.90;99.90
46085;DHT22;31823;47.032;8.310;2022-09-17T06:11:33;8.80;99.90
46085;DHT22;31823;47.032;8.310;2022-09-17T06:14:00;8.40;99.90
46085;DHT22;31823;47.032;8.310;2022-09-17T06:16:26;8.50;99.90
46085;DHT22;31823;47.032;8.310;2022-09-17T06:18:51;9.00;99.90
46085;DHT22;31823;47.032;8.310;2022-09-17T06:21:18;9.00;99.90
46085;DHT22;31823;47.032;8.310;2022-09-17T06:23:44;9.10;99.90
46085;DHT22;31823;47.032;8.310;2022-09-17T06:26:10;8.70;99.90
46085;DHT22;31823;47.032;8.310;2022-09-17T06:28:36;8.50;99.90
46085;DHT22;31823;47.032;8.310;2022-09-17T06:31:06;8.50;99.90
46085;DHT22;31823;47.032;8.310;2022-09-17T06:33:32;8.30;99.90
46085;DHT22;31823;47.032;8.310;2022-09-17T06:35:59;8.20;99.90
46085;DHT22;31823;47.032;8.310;2022-09-17T06:38:29;8.20;99.90
46085;DHT22;31823;47.032;8.310;2022-09-17T06:40:55;8.20;99.90
46085;DHT22;31823;47.032;8.310;2022-09-17T06:43:21;8.30;99.90
46085;DHT22;31823;47.032;8.310;2022-09-17T06:48:18;8.50;99.90
46085;DHT22;31823;47.032;8.310;2022-09-17T06:50:44;8.50;99.90
46085;DHT22;31823;47.032;8.310;2022-09-17T06:53:10;8.60;99.90
46085;DHT22;31823;47.032;8.310;2022-09-17T06:55:35;8.70;99.90
46085;DHT22;31823;47.032;8.310;2022-09-17T06:58:01;8.80;99.90
46085;DHT22;31823;47.032;8.310;2022-09-17T07:00:26;9.10;99.90
46085;DHT22;31823;47.032;8.310;2022-09-17T07:02:56;9.30;99.90
46085;DHT22;31823;47.032;8.310;2022-09-17T07:05:23;9.90;99.90
46085;DHT22;31823;47.032;8.310;2022-09-17T07:07:49;9.90;99.90
46085;DHT22;31823;47.032;8.310;2022-09-17T07:10:15;10.10;99.90
46085;DHT22;31823;47.032;8.310;2022-09-17T07:12:41;10.80;99.90
46085;DHT22;31823;47.032;8.310;2022-09-17T07:15:07;11.60;99.90
46085;DHT22;31823;47.032;8.310;2022-09-17T07:17:36;11.80;99.90
46085;DHT22;31823;47.032;8.310;2022-09-17T07:20:02;12.20;99.90
46085;DHT22;31823;47.032;8.310;2022-09-17T07:22:28;12.40;99.90
46085;DHT22;31823;47.032;8.310;2022-09-17T07:24:53;12.30;99.90
46085;DHT22;31823;47.032;8.310;2022-09-17T07:27:19;12.00;99.90
46085;DHT22;31823;47.032;8.310;2022-09-17T07:29:46;11.60;99.90
46085;DHT22;31823;47.032;8.310;2022-09-17T07:32:11;11.60;99.90
46085;DHT22;31823;47.032;8.310;2022-09-17T07:34:37;11.50;99.90
46085;DHT22;31823;47.032;8.310;2022-09-17T07:37:02;11.30;99.90
46085;DHT22;31823;47.032;8.310;2022-09-17T07:39:28;11.10;99.90
46085;DHT22;31823;47.032;8.310;2022-09-17T07:41:54;11.10;99.90
46085;DHT22;31823;47.032;8.310;2022-09-17T07:44:19;11.00;99.90
46085;DHT22;31823;47.032;8.310;2022-09-17T07:46:46;11.10;99.90
46085;DHT22;31823;47.032;8.310;2022-09-17T07:49:12;11.10;99.90
46085;DHT22;31823;47.032;8.310;2022-09-17T07:51:37;10.90;99.90
46085;DHT22;31823;47.032;8.310;2022-09-17T07:54:03;10.80;99.90
46085;DHT22;31823;47.032;8.310;2022-09-17T07:56:30;10.70;99.90
46085;DHT22;31823;47.032;8.310;2022-09-17T07:58:56;10.80;99.90
46085;DHT22;31823;47.032;8.310;2022-09-17T08:01:22;10.70;99.90
46085;DHT22;31823;47.032;8.310;2022-09-17T08:03:50;10.60;99.90
46085;DHT22;31823;47.032;8.310;2022-09-17T08:06:18;10.70;99.90
46085;DHT22;31823;47.032;8.310;2022-09-17T08:08:44;10.60;99.90
46085;DHT22;31823;47.032;8.310;2022-09-17T08:11:15;10.70;99.90
46085;DHT22;31823;47.032;8.310;2022-09-17T08:13:41;10.80;99.90
46085;DHT22;31823;47.032;8.310;2022-09-17T08:16:09;10.80;99.90
46085;DHT22;31823;47.032;8.310;2022-09-17T08:18:38;10.90;99.90
46085;DHT22;31823;47.032;8.310;2022-09-17T08:21:05;10.80;99.90
46085;DHT22;31823;47.032;8.310;2022-09-17T08:23:34;10.80;99.90
46085;DHT22;31823;47.032;8.310;2022-09-17T08:26:00;10.80;99.90
46085;DHT22;31823;47.032;8.310;2022-09-17T08:28:27;10.60;99.90
46085;DHT22;31823;47.032;8.310;2022-09-17T08:30:53;10.40;99.90
46085;DHT22;31823;47.032;8.310;2022-09-17T08:33:20;10.10;99.90
46085;DHT22;31823;47.032;8.310;2022-09-17T08:35:53;10.40;99.90
46085;DHT22;31823;47.032;8.310;2022-09-17T08:38:19;10.60;99.90
46085;DHT22;31823;47.032;8.310;2022-09-17T08:43:26;10.50;99.90
46085;DHT22;31823;47.032;8.310;2022-09-17T08:45:57;10.40;99.90
46085;DHT22;31823;47.032;8.310;2022-09-17T08:48:33;10.60;99.90
46085;DHT22;31823;47.032;8.310;2022-09-17T08:51:18;10.70;99.90
46085;DHT22;31823;47.032;8.310;2022-09-17T08:56:31;10.60;99.90
46085;DHT22;31823;47.032;8.310;2022-09-17T08:59:24;10.10;99.90
46085;DHT22;31823;47.032;8.310;2022-09-17T09:05:00;10.20;99.90
46085;DHT22;31823;47.032;8.310;2022-09-17T09:07:30;10.60;99.90
46085;DHT22;31823;47.032;8.310;2022-09-17T09:12:32;10.70;99.90
46085;DHT22;31823;47.032;8.310;2022-09-17T09:17:42;11.00;99.90
46085;DHT22;31823;47.032;8.310;2022-09-17T09:20:17;11.00;99.90
46085;DHT22;31823;47.032;8.310;2022-09-17T09:22:49;10.90;99.90
46085;DHT22;31823;47.032;8.310;2022-09-17T09:25:22;11.10;99.90
46085;DHT22;31823;47.032;8.310;2022-09-17T09:30:34;11.10;99.90
46085;DHT22;31823;47.032;8.310;2022-09-17T09:33:14;10.70;99.90
46085;DHT22;31823;47.032;8.310;2022-09-17T09:35:42;10.80;99.90
46085;DHT22;31823;47.032;8.310;2022-09-17T09:43:23;10.80;99.90
46085;DHT22;31823;47.032;8.310;2022-09-17T09:46:18;11.00;99.90
46085;DHT22;31823;47.032;8.310;2022-09-17T09:54:47;11.60;99.90
46085;DHT22;31823;47.032;8.310;2022-09-17T09:57:29;11.60;99.90
46085;DHT22;31823;47.032;8.310;2022-09-17T10:00:34;11.70;99.90
46085;DHT22;31823;47.032;8.310;2022-09-17T10:03:12;11.90;99.90
46085;DHT22;31823;47.032;8.310;2022-09-17T10:05:45;11.90;99.90
46085;DHT22;31823;47.032;8.310;2022-09-17T10:08:16;11.60;99.90
46085;DHT22;31823;47.032;8.310;2022-09-17T10:11:03;11.90;99.90
46085;DHT22;31823;47.032;8.310;2022-09-17T10:13:31;11.60;99.90
46085;DHT22;31823;47.032;8.310;2022-09-17T10:18:39;11.60;99.90
46085;DHT22;31823;47.032;8.310;2022-09-17T10:21:06;11.10;99.90
46085;DHT22;31823;47.032;8.310;2022-09-17T10:23:42;10.90;99.90
46085;DHT22;31823;47.032;8.310;2022-09-17T10:26:20;10.60;99.90
46085;DHT22;31823;47.032;8.310;2022-09-17T10:28:50;10.50;99.90
46085;DHT22;31823;47.032;8.310;2022-09-17T10:31:17;10.50;99.90
46085;DHT22;31823;47.032;8.310;2022-09-17T10:34:02;10.40;99.90
46085;DHT22;31823;47.032;8.310;2022-09-17T10:36:44;10.40;99.90
46085;DHT22;31823;47.032;8.310;2022-09-17T10:44:22;10.50;99.90
46085;DHT22;31823;47.032;8.310;2022-09-17T10:46:50;10.80;99.90
46085;DHT22;31823;47.032;8.310;2022-09-17T10:49:45;10.70;99.90
46085;DHT22;31823;47.032;8.310;2022-09-17T10:52:33;11.10;99.90
46085;DHT22;31823;47.032;8.310;2022-09-17T10:55:15;11.30;99.90
46085;DHT22;31823;47.032;8.310;2022-09-17T11:00:23;11.40;99.90
46085;DHT22;31823;47.032;8.310;2022-09-17T11:08:38;12.30;99.90
46085;DHT22;31823;47.032;8.310;2022-09-17T11:11:11;12.20;99.90
46085;DHT22;31823;47.032;8.310;2022-09-17T11:13:48;12.10;99.90
46085;DHT22;31823;47.032;8.310;2022-09-17T11:16:33;12.00;99.90
46085;DHT22;31823;47.032;8.310;2022-09-17T11:22:04;11.90;99.90
46085;DHT22;31823;47.032;8.310;2022-09-17T11:27:51;11.70;99.90
46085;DHT22;31823;47.032;8.310;2022-09-17T11:30:22;11.40;99.90
46085;DHT22;31823;47.032;8.310;2022-09-17T11:35:41;11.00;99.90
46085;DHT22;31823;47.032;8.310;2022-09-17T11:38:20;11.30;99.90
46085;DHT22;31823;47.032;8.310;2022-09-17T11:41:11;11.60;99.90
46085;DHT22;31823;47.032;8.310;2022-09-17T11:43:41;11.80;99.90
46085;DHT22;31823;47.032;8.310;2022-09-17T11:46:17;12.10;99.90
46085;DHT22;31823;47.032;8.310;2022-09-17T11:56:18;12.10;99.90
46085;DHT22;31823;47.032;8.310;2022-09-17T11:59:21;12.10;99.90
46085;DHT22;31823;47.032;8.310;2022-09-17T12:02:00;12.00;99.90
46085;DHT22;31823;47.032;8.310;2022-09-17T12:07:26;12.60;99.90
46085;DHT22;31823;47.032;8.310;2022-09-17T12:09:58;13.10;99.90
46085;DHT22;31823;47.032;8.310;2022-09-17T12:12:26;13.20;99.90
46085;DHT22;31823;47.032;8.310;2022-09-17T12:15:12;13.30;99.90
46085;DHT22;31823;47.032;8.310;2022-09-17T12:17:46;13.50;99.90
46085;DHT22;31823;47.032;8.310;2022-09-17T12:20:31;13.40;99.90
46085;DHT22;31823;47.032;8.310;2022-09-17T12:23:02;13.70;99.90
46085;DHT22;31823;47.032;8.310;2022-09-17T12:25:35;13.50;99.90
46085;DHT22;31823;47.032;8.310;2022-09-17T12:28:32;13.60;99.90
46085;DHT22;31823;47.032;8.310;2022-09-17T12:31:22;13.30;99.90
46085;DHT22;31823;47.032;8.310;2022-09-17T12:33:56;13.10;99.90
46085;DHT22;31823;47.032;8.310;2022-09-17T12:37:07;14.00;99.90
46085;DHT22;31823;47.032;8.310;2022-09-17T12:45:37;13.50;99.90
46085;DHT22;31823;47.032;8.310;2022-09-17T12:50:48;13.20;99.90
46085;DHT22;31823;47.032;8.310;2022-09-17T12:56:14;12.90;99.90
46085;DHT22;31823;47.032;8.310;2022-09-17T13:06:36;12.10;99.90
46085;DHT22;31823;47.032;8.310;2022-09-17T13:13:22;12.30;99.90
46085;DHT22;31823;47.032;8.310;2022-09-17T13:18:10;11.90;99.90
46085;DHT22;31823;47.032;8.310;2022-09-17T13:23:12;12.00;99.90
46085;DHT22;31823;47.032;8.310;2022-09-17T13:25:51;12.20;99.90
46085;DHT22;31823;47.032;8.310;2022-09-17T13:28:19;12.30;99.90
46085;DHT22;31823;47.032;8.310;2022-09-17T13:30:57;12.40;99.90
46085;DHT22;31823;47.032;8.310;2022-09-17T13:44:34;12.10;99.90
46085;DHT22;31823;47.032;8.310;2022-09-17T13:47:16;12.00;99.90
46085;DHT22;31823;47.032;8.310;2022-09-17T13:49:48;12.10;99.90
46085;DHT22;31823;47.032;8.310;2022-09-17T13:52:48;11.90;99.90
46085;DHT22;31823;47.032;8.310;2022-09-17T13:58:28;11.70;99.90
46085;DHT22;31823;47.032;8.310;2022-09-17T14:01:11;11.70;99.90
46085;DHT22;31823;47.032;8.310;2022-09-17T14:19:28;11.40;99.90
46085;DHT22;31823;47.032;8.310;2022-09-17T14:22:01;11.40;99.90
46085;DHT22;31823;47.032;8.310;2022-09-17T14:33:22;10.90;99.90
46085;DHT22;31823;47.032;8.310;2022-09-17T14:35:54;10.60;99.90
46085;DHT22;31823;47.032;8.310;2022-09-17T14:38:25;10.30;99.90
46085;DHT22;31823;47.032;8.310;2022-09-17T14:41:05;10.30;99.90
46085;DHT22;31823;47.032;8.310;2022-09-17T14:51:50;10.00;99.90
46085;DHT22;31823;47.032;8.310;2022-09-17T14:54:27;9.80;99.90
46085;DHT22;31823;47.032;8.310;2022-09-17T14:57:00;9.80;99.90
46085;DHT22;31823;47.032;8.310;2022-09-17T14:59:48;9.80;99.90
46085;DHT22;31823;47.032;8.310;2022-09-17T15:02:37;9.80;99.90
46085;DHT22;31823;47.032;8.310;2022-09-17T15:05:35;10.20;99.90
46085;DHT22;31823;47.032;8.310;2022-09-17T15:10:53;11.90;99.90
46085;DHT22;31823;47.032;8.310;2022-09-17T15:18:18;12.20;99.90
46085;DHT22;31823;47.032;8.310;2022-09-17T15:20:46;11.70;99.90
46085;DHT22;31823;47.032;8.310;2022-09-17T15:23:19;11.40;99.90
46085;DHT22;31823;47.032;8.310;2022-09-17T15:25:49;11.50;99.90
46085;DHT22;31823;47.032;8.310;2022-09-17T15:28:26;12.30;99.90
46085;DHT22;31823;47.032;8.310;2022-09-17T15:30:54;12.10;99.90
46085;DHT22;31823;47.032;8.310;2022-09-17T15:33:20;12.30;99.90
46085;DHT22;31823;47.032;8.310;2022-09-17T15:36:00;12.10;99.90
46085;DHT22;31823;47.032;8.310;2022-09-17T15:38:27;12.00;99.90
46085;DHT22;31823;47.032;8.310;2022-09-17T15:40:54;11.40;99.90
46085;DHT22;31823;47.032;8.310;2022-09-17T15:45:49;11.20;99.90
46085;DHT22;31823;47.032;8.310;2022-09-17T15:50:54;10.90;99.90
46085;DHT22;31823;47.032;8.310;2022-09-17T15:53:27;10.90;99.90
46085;DHT22;31823;47.032;8.310;2022-09-17T15:55:58;11.00;99.90
46085;DHT22;31823;47.032;8.310;2022-09-17T15:58:30;11.00;99.90
46085;DHT22;31823;47.032;8.310;2022-09-17T16:07:16;10.40;99.90
46085;DHT22;31823;47.032;8.310;2022-09-17T16:09:49;10.30;99.90
46085;DHT22;31823;47.032;8.310;2022-09-17T16:12:22;10.20;99.90
46085;DHT22;31823;47.032;8.310;2022-09-17T16:14:53;10.00;99.90
46085;DHT22;31823;47.032;8.310;2022-09-17T16:17:24;10.10;99.90
46085;DHT22;31823;47.032;8.310;2022-09-17T16:19:50;10.10;99.90
46085;DHT22;31823;47.032;8.310;2022-09-17T16:22:16;10.10;99.90
46085;DHT22;31823;47.032;8.310;2022-09-17T16:24:41;10.00;99.90
46085;DHT22;31823;47.032;8.310;2022-09-17T16:27:12;9.90;99.90
46085;DHT22;31823;47.032;8.310;2022-09-17T16:29:40;9.80;99.90
46085;DHT22;31823;47.032;8.310;2022-09-17T16:32:09;9.80;99.90
46085;DHT22;31823;47.032;8.310;2022-09-17T16:34:35;9.80;99.90
46085;DHT22;31823;47.032;8.310;2022-09-17T16:37:01;9.90;99.90
46085;DHT22;31823;47.032;8.310;2022-09-17T16:39:26;10.00;99.90
46085;DHT22;31823;47.032;8.310;2022-09-17T16:41:52;10.00;99.90
46085;DHT22;31823;47.032;8.310;2022-09-17T16:44:17;10.10;99.90
46085;DHT22;31823;47.032;8.310;2022-09-17T16:46:43;10.20;99.90
46085;DHT22;31823;47.032;8.310;2022-09-17T16:49:09;10.30;99.90
46085;DHT22;31823;47.032;8.310;2022-09-17T16:51:34;10.30;99.90
46085;DHT22;31823;47.032;8.310;2022-09-17T16:54:00;10.20;99.90
46085;DHT22;31823;47.032;8.310;2022-09-17T16:56:25;10.30;99.90
46085;DHT22;31823;47.032;8.310;2022-09-17T16:58:54;10.30;99.90
46085;DHT22;31823;47.032;8.310;2022-09-17T17:01:21;10.40;99.90
46085;DHT22;31823;47.032;8.310;2022-09-17T17:03:50;10.30;99.90
46085;DHT22;31823;47.032;8.310;2022-09-17T17:06:18;10.40;99.90
46085;DHT22;31823;47.032;8.310;2022-09-17T17:08:43;10.30;99.90
46085;DHT22;31823;47.032;8.310;2022-09-17T17:11:09;10.40;99.90
46085;DHT22;31823;47.032;8.310;2022-09-17T17:13:35;10.40;99.90
46085;DHT22;31823;47.032;8.310;2022-09-17T17:16:08;10.30;99.90
46085;DHT22;31823;47.032;8.310;2022-09-17T17:18:34;10.30;99.90
46085;DHT22;31823;47.032;8.310;2022-09-17T17:21:04;10.30;99.90
46085;DHT22;31823;47.032;8.310;2022-09-17T17:23:30;10.40;99.90
46085;DHT22;31823;47.032;8.310;2022-09-17T17:25:56;10.40;99.90
46085;DHT22;31823;47.032;8.310;2022-09-17T17:28:21;10.20;99.90
46085;DHT22;31823;47.032;8.310;2022-09-17T17:30:47;10.20;99.90
46085;DHT22;31823;47.032;8.310;2022-09-17T17:33:13;10.00;99.90
46085;DHT22;31823;47.032;8.310;2022-09-17T17:35:38;10.00;99.90
46085;DHT22;31823;47.032;8.310;2022-09-17T17:38:04;9.90;99.90
46085;DHT22;31823;47.032;8.310;2022-09-17T17:40:30;9.80;99.90
46085;DHT22;31823;47.032;8.310;2022-09-17T17:42:55;9.70;99.90
46085;DHT22;31823;47.032;8.310;2022-09-17T17:45:21;9.50;99.90
46085;DHT22;31823;47.032;8.310;2022-09-17T17:47:46;9.50;99.90
46085;DHT22;31823;47.032;8.310;2022-09-17T17:50:12;9.50;99.90
46085;DHT22;31823;47.032;8.310;2022-09-17T17:52:38;9.40;99.90
46085;DHT22;31823;47.032;8.310;2022-09-17T17:55:05;9.20;99.90
46085;DHT22;31823;47.032;8.310;2022-09-17T17:57:31;9.20;99.90
46085;DHT22;31823;47.032;8.310;2022-09-17T17:59:57;9.10;99.90
46085;DHT22;31823;47.032;8.310;2022-09-17T18:02:22;9.10;99.90
46085;DHT22;31823;47.032;8.310;2022-09-17T18:04:48;9.20;99.90
46085;DHT22;31823;47.032;8.310;2022-09-17T18:07:13;9.10;99.90
46085;DHT22;31823;47.032;8.310;2022-09-17T18:09:39;8.90;99.90
46085;DHT22;31823;47.032;8.310;2022-09-17T18:12:05;8.90;99.90
46085;DHT22;31823;47.032;8.310;2022-09-17T18:14:31;8.90;99.90
46085;DHT22;31823;47.032;8.310;2022-09-17T18:16:57;8.90;99.90
46085;DHT22;31823;47.032;8.310;2022-09-17T18:19:22;8.90;99.90
46085;DHT22;31823;47.032;8.310;2022-09-17T18:21:48;8.80;99.90
46085;DHT22;31823;47.032;8.310;2022-09-17T18:24:14;8.70;99.90
46085;DHT22;31823;47.032;8.310;2022-09-17T18:26:40;8.70;99.90
46085;DHT22;31823;47.032;8.310;2022-09-17T18:29:05;8.60;99.90
46085;DHT22;31823;47.032;8.310;2022-09-17T18:31:33;8.70;99.90
46085;DHT22;31823;47.032;8.310;2022-09-17T18:34:08;8.70;99.90
46085;DHT22;31823;47.032;8.310;2022-09-17T18:36:35;8.70;99.90
46085;DHT22;31823;47.032;8.310;2022-09-17T18:39:03;8.70;99.90
46085;DHT22;31823;47.032;8.310;2022-09-17T18:41:30;8.70;99.90
46085;DHT22;31823;47.032;8.310;2022-09-17T18:43:56;8.70;99.90
46085;DHT22;31823;47.032;8.310;2022-09-17T18:46:24;8.60;99.90
46085;DHT22;31823;47.032;8.310;2022-09-17T18:48:53;8.60;99.90
46085;DHT22;31823;47.032;8.310;2022-09-17T18:51:20;8.60;99.90
46085;DHT22;31823;47.032;8.310;2022-09-17T18:53:46;8.60;99.90
46085;DHT22;31823;47.032;8.310;2022-09-17T18:56:16;8.60;99.90
46085;DHT22;31823;47.032;8.310;2022-09-17T18:58:47;8.50;99.90
46085;DHT22;31823;47.032;8.310;2022-09-17T19:01:14;8.60;99.90
46085;DHT22;31823;47.032;8.310;2022-09-17T19:03:40;8.70;99.90
46085;DHT22;31823;47.032;8.310;2022-09-17T19:06:08;8.60;99.90
46085;DHT22;31823;47.032;8.310;2022-09-17T19:08:34;8.60;99.90
46085;DHT22;31823;47.032;8.310;2022-09-17T19:11:00;8.50;99.90
46085;DHT22;31823;47.032;8.310;2022-09-17T19:13:31;8.60;99.90
46085;DHT22;31823;47.032;8.310;2022-09-17T19:15:57;8.70;99.90
46085;DHT22;31823;47.032;8.310;2022-09-17T19:18:24;8.60;99.90
46085;DHT22;31823;47.032;8.310;2022-09-17T19:20:49;8.60;99.90
46085;DHT22;31823;47.032;8.310;2022-09-17T19:23:15;8.70;99.90
46085;DHT22;31823;47.032;8.310;2022-09-17T19:25:40;8.60;99.90
46085;DHT22;31823;47.032;8.310;2022-09-17T19:28:06;8.40;99.90
46085;DHT22;31823;47.032;8.310;2022-09-17T19:30:33;8.50;99.90